sensor_id;sensor_type;location;lat;lon;timestamp;pressure;altitude;pressure_sealevel;temperature;humidity
47935;BME280;33704;43.592;-79.628;2024-03-25T00:00:21;100894.55;;;35.13;23.12
47935;BME280;33704;43.592;-79.628;2024-03-25T00:00:53;100895.57;;;35.13;22.97
47935;BME280;33704;43.592;-79.628;2024-03-25T00:01:25;100893.07;;;35.12;23.43
47935;BME280;33704;43.592;-79.628;2024-03-25T00:01:58;100892.67;;;35.12;22.72
47935;BME280;33704;43.592;-79.628;2024-03-25T00:02:30;100893.89;;;35.15;22.57
47935;BME280;33704;43.592;-79.628;2024-03-25T00:03:04;100894.59;;;35.17;22.98
47935;BME280;33704;43.592;-79.628;2024-03-25T00:03:36;100892.14;;;35.16;22.85
47935;BME280;33704;43.592;-79.628;2024-03-25T00:04:08;100896.24;;;35.15;22.91
47935;BME280;33704;43.592;-79.628;2024-03-25T00:04:40;100893.51;;;35.16;23.17
47935;BME280;33704;43.592;-79.628;2024-03-25T00:05:15;100893.21;;;35.19;22.56
47935;BME280;33704;43.592;-79.628;2024-03-25T00:05:47;100897.13;;;35.18;22.67
47935;BME280;33704;43.592;-79.628;2024-03-25T00:06:24;100896.10;;;35.17;22.42
47935;BME280;33704;43.592;-79.628;2024-03-25T00:06:57;100894.59;;;35.20;22.45
47935;BME280;33704;43.592;-79.628;2024-03-25T00:07:29;100894.42;;;35.19;22.79
47935;BME280;33704;43.592;-79.628;2024-03-25T00:08:04;100893.21;;;35.20;22.61
47935;BME280;33704;43.592;-79.628;2024-03-25T00:08:36;100893.44;;;35.18;22.31
47935;BME280;33704;43.592;-79.628;2024-03-25T00:09:08;100892.07;;;35.18;22.53
47935;BME280;33704;43.592;-79.628;2024-03-25T00:09:43;100893.35;;;35.18;22.43
47935;BME280;33704;43.592;-79.628;2024-03-25T00:10:15;100892.06;;;35.16;22.46
47935;BME280;33704;43.592;-79.628;2024-03-25T00:10:47;100894.35;;;35.16;22.66
47935;BME280;33704;43.592;-79.628;2024-03-25T00:11:19;100895.56;;;35.16;22.65
47935;BME280;33704;43.592;-79.628;2024-03-25T00:11:52;100894.74;;;35.16;22.59
47935;BME280;33704;43.592;-79.628;2024-03-25T00:12:25;100894.46;;;35.17;22.41
47935;BME280;33704;43.592;-79.628;2024-03-25T00:12:57;100895.38;;;35.16;22.56
47935;BME280;33704;43.592;-79.628;2024-03-25T00:13:29;100894.90;;;35.12;22.51
47935;BME280;33704;43.592;-79.628;2024-03-25T00:14:00;100895.29;;;35.12;22.67
47935;BME280;33704;43.592;-79.628;2024-03-25T00:14:33;100895.56;;;35.12;22.66
47935;BME280;33704;43.592;-79.628;2024-03-25T00:15:07;100895.52;;;35.15;22.55
47935;BME280;33704;43.592;-79.628;2024-03-25T00:15:39;100896.93;;;35.12;22.56
47935;BME280;33704;43.592;-79.628;2024-03-25T00:16:12;100894.54;;;35.14;22.41
47935;BME280;33704;43.592;-79.628;2024-03-25T00:16:44;100897.67;;;35.11;22.34
47935;BME280;33704;43.592;-79.628;2024-03-25T00:17:16;100895.95;;;35.13;22.17
47935;BME280;33704;43.592;-79.628;2024-03-25T00:17:48;100896.29;;;35.11;22.17
47935;BME280;33704;43.592;-79.628;2024-03-25T00:18:20;100897.15;;;35.09;22.18
47935;BME280;33704;43.592;-79.628;2024-03-25T00:18:53;100893.94;;;35.07;21.99
47935;BME280;33704;43.592;-79.628;2024-03-25T00:19:25;100895.71;;;35.08;22.14
47935;BME280;33704;43.592;-79.628;2024-03-25T00:19:57;100896.39;;;35.09;22.03
47935;BME280;33704;43.592;-79.628;2024-03-25T00:20:29;100898.37;;;35.08;22.21
47935;BME280;33704;43.592;-79.628;2024-03-25T00:21:02;100900.12;;;35.09;22.48
47935;BME280;33704;43.592;-79.628;2024-03-25T00:21:34;100902.52;;;35.10;22.57
47935;BME280;33704;43.592;-79.628;2024-03-25T00:22:06;100901.94;;;35.09;22.32
47935;BME280;33704;43.592;-79.628;2024-03-25T00:22:39;100902.21;;;35.11;22.57
47935;BME280;33704;43.592;-79.628;2024-03-25T00:23:10;100903.58;;;35.13;22.68
47935;BME280;33704;43.592;-79.628;2024-03-25T00:23:43;100903.07;;;35.13;22.45
47935;BME280;33704;43.592;-79.628;2024-03-25T00:24:15;100902.34;;;35.12;22.58
47935;BME280;33704;43.592;-79.628;2024-03-25T00:24:47;100904.23;;;35.12;22.87
47935;BME280;33704;43.592;-79.628;2024-03-25T00:25:20;100903.98;;;35.13;23.16
47935;BME280;33704;43.592;-79.628;2024-03-25T00:25:53;100905.98;;;35.12;22.74
47935;BME280;33704;43.592;-79.628;2024-03-25T00:26:25;100906.30;;;35.11;22.42
47935;BME280;33704;43.592;-79.628;2024-03-25T00:26:57;100907.32;;;35.16;22.24
47935;BME280;33704;43.592;-79.628;2024-03-25T00:27:29;100908.87;;;35.15;23.17
47935;BME280;33704;43.592;-79.628;2024-03-25T00:28:04;100907.68;;;35.16;22.33
47935;BME280;33704;43.592;-79.628;2024-03-25T00:28:36;100908.48;;;35.18;22.20
47935;BME280;33704;43.592;-79.628;2024-03-25T00:29:08;100910.40;;;35.16;22.75
47935;BME280;33704;43.592;-79.628;2024-03-25T00:29:40;100913.91;;;35.20;22.77
47935;BME280;33704;43.592;-79.628;2024-03-25T00:30:18;100910.24;;;35.15;22.54
47935;BME280;33704;43.592;-79.628;2024-03-25T00:30:50;100909.36;;;35.18;22.55
47935;BME280;33704;43.592;-79.628;2024-03-25T00:31:23;100912.00;;;35.18;22.65
47935;BME280;33704;43.592;-79.628;2024-03-25T00:31:55;100908.35;;;35.18;22.43
47935;BME280;33704;43.592;-79.628;2024-03-25T00:32:27;100910.42;;;35.18;22.49
47935;BME280;33704;43.592;-79.628;2024-03-25T00:32:59;100909.69;;;35.17;22.49
47935;BME280;33704;43.592;-79.628;2024-03-25T00:33:32;100911.06;;;35.17;22.31
47935;BME280;33704;43.592;-79.628;2024-03-25T00:34:04;100908.65;;;35.18;22.06
47935;BME280;33704;43.592;-79.628;2024-03-25T00:34:37;100909.51;;;35.18;21.91
47935;BME280;33704;43.592;-79.628;2024-03-25T00:35:09;100909.66;;;35.17;22.08
47935;BME280;33704;43.592;-79.628;2024-03-25T00:35:41;100910.08;;;35.15;22.71
47935;BME280;33704;43.592;-79.628;2024-03-25T00:36:14;100909.67;;;35.17;22.70
47935;BME280;33704;43.592;-79.628;2024-03-25T00:36:46;100911.44;;;35.15;22.57
47935;BME280;33704;43.592;-79.628;2024-03-25T00:37:18;100911.37;;;35.19;22.62
47935;BME280;33704;43.592;-79.628;2024-03-25T00:37:50;100909.58;;;35.17;22.75
47935;BME280;33704;43.592;-79.628;2024-03-25T00:38:23;100909.51;;;35.18;23.18
47935;BME280;33704;43.592;-79.628;2024-03-25T00:38:55;100909.03;;;35.16;22.11
47935;BME280;33704;43.592;-79.628;2024-03-25T00:39:28;100906.78;;;35.19;22.85
47935;BME280;33704;43.592;-79.628;2024-03-25T00:40:00;100909.86;;;35.19;22.70
47935;BME280;33704;43.592;-79.628;2024-03-25T00:40:33;100908.79;;;35.17;22.64
47935;BME280;33704;43.592;-79.628;2024-03-25T00:41:06;100910.48;;;35.18;23.05
47935;BME280;33704;43.592;-79.628;2024-03-25T00:41:38;100908.91;;;35.21;22.42
47935;BME280;33704;43.592;-79.628;2024-03-25T00:42:10;100912.15;;;35.19;22.97
47935;BME280;33704;43.592;-79.628;2024-03-25T00:42:43;100914.00;;;35.21;22.86
47935;BME280;33704;43.592;-79.628;2024-03-25T00:43:15;100917.37;;;35.23;22.59
47935;BME280;33704;43.592;-79.628;2024-03-25T00:43:47;100915.70;;;35.21;22.48
47935;BME280;33704;43.592;-79.628;2024-03-25T00:44:19;100917.59;;;35.22;22.18
47935;BME280;33704;43.592;-79.628;2024-03-25T00:44:52;100918.52;;;35.21;22.25
47935;BME280;33704;43.592;-79.628;2024-03-25T00:45:24;100922.04;;;35.21;22.77
47935;BME280;33704;43.592;-79.628;2024-03-25T00:45:56;100920.11;;;35.19;22.19
47935;BME280;33704;43.592;-79.628;2024-03-25T00:46:28;100921.15;;;35.18;22.29
47935;BME280;33704;43.592;-79.628;2024-03-25T00:47:02;100919.87;;;35.19;22.63
47935;BME280;33704;43.592;-79.628;2024-03-25T00:47:35;100915.60;;;35.19;22.36
47935;BME280;33704;43.592;-79.628;2024-03-25T00:48:07;100915.63;;;35.19;22.59
47935;BME280;33704;43.592;-79.628;2024-03-25T00:48:39;100918.84;;;35.21;22.82
47935;BME280;33704;43.592;-79.628;2024-03-25T00:49:12;100916.32;;;35.23;22.86
47935;BME280;33704;43.592;-79.628;2024-03-25T00:49:44;100914.99;;;35.21;22.41
47935;BME280;33704;43.592;-79.628;2024-03-25T00:50:22;100914.16;;;35.23;22.76
47935;BME280;33704;43.592;-79.628;2024-03-25T00:50:54;100913.17;;;35.22;22.73
47935;BME280;33704;43.592;-79.628;2024-03-25T00:51:26;100914.76;;;35.16;22.32
47935;BME280;33704;43.592;-79.628;2024-03-25T00:51:59;100912.61;;;35.16;22.50
47935;BME280;33704;43.592;-79.628;2024-03-25T00:52:32;100914.36;;;35.18;22.85
47935;BME280;33704;43.592;-79.628;2024-03-25T00:53:05;100913.75;;;35.22;22.52
47935;BME280;33704;43.592;-79.628;2024-03-25T00:53:37;100913.53;;;35.18;22.56
47935;BME280;33704;43.592;-79.628;2024-03-25T00:54:09;100914.58;;;35.17;22.70
47935;BME280;33704;43.592;-79.628;2024-03-25T00:54:42;100914.07;;;35.15;22.67
47935;BME280;33704;43.592;-79.628;2024-03-25T00:55:15;100915.43;;;35.14;22.30
47935;BME280;33704;43.592;-79.628;2024-03-25T00:55:47;100915.34;;;35.14;22.72
47935;BME280;33704;43.592;-79.628;2024-03-25T00:56:19;100917.77;;;35.13;22.69
47935;BME280;33704;43.592;-79.628;2024-03-25T00:56:52;100918.14;;;35.16;22.60
47935;BME280;33704;43.592;-79.628;2024-03-25T00:57:24;100923.67;;;35.12;22.87
47935;BME280;33704;43.592;-79.628;2024-03-25T00:57:56;100922.23;;;35.14;22.72
47935;BME280;33704;43.592;-79.628;2024-03-25T00:58:28;100922.05;;;35.15;22.33
47935;BME280;33704;43.592;-79.628;2024-03-25T00:59:00;100923.34;;;35.16;22.05
47935;BME280;33704;43.592;-79.628;2024-03-25T00:59:33;100922.99;;;35.19;22.30
47935;BME280;33704;43.592;-79.628;2024-03-25T01:00:06;100924.15;;;35.17;22.85
47935;BME280;33704;43.592;-79.628;2024-03-25T01:00:39;100926.12;;;35.17;22.75
47935;BME280;33704;43.592;-79.628;2024-03-25T01:01:13;100925.52;;;35.18;22.33
47935;BME280;33704;43.592;-79.628;2024-03-25T01:01:45;100925.39;;;35.21;22.60
47935;BME280;33704;43.592;-79.628;2024-03-25T01:02:17;100925.97;;;35.22;22.61
47935;BME280;33704;43.592;-79.628;2024-03-25T01:02:48;100928.28;;;35.23;23.15
47935;BME280;33704;43.592;-79.628;2024-03-25T01:03:20;100925.74;;;35.23;23.12
47935;BME280;33704;43.592;-79.628;2024-03-25T01:03:53;100926.62;;;35.21;23.24
47935;BME280;33704;43.592;-79.628;2024-03-25T01:04:25;100925.05;;;35.23;23.13
47935;BME280;33704;43.592;-79.628;2024-03-25T01:04:57;100925.39;;;35.24;23.09
47935;BME280;33704;43.592;-79.628;2024-03-25T01:05:29;100924.32;;;35.24;23.27
47935;BME280;33704;43.592;-79.628;2024-03-25T01:06:03;100924.87;;;35.25;23.33
47935;BME280;33704;43.592;-79.628;2024-03-25T01:06:35;100926.63;;;35.26;23.70
47935;BME280;33704;43.592;-79.628;2024-03-25T01:07:06;100923.27;;;35.22;23.48
47935;BME280;33704;43.592;-79.628;2024-03-25T01:07:39;100925.02;;;35.21;23.48
47935;BME280;33704;43.592;-79.628;2024-03-25T01:08:13;100923.32;;;35.24;23.37
47935;BME280;33704;43.592;-79.628;2024-03-25T01:08:45;100926.94;;;35.24;24.03
47935;BME280;33704;43.592;-79.628;2024-03-25T01:09:17;100925.58;;;35.24;24.01
47935;BME280;33704;43.592;-79.628;2024-03-25T01:09:49;100926.56;;;35.24;25.28
47935;BME280;33704;43.592;-79.628;2024-03-25T01:10:22;100929.44;;;35.25;24.04
47935;BME280;33704;43.592;-79.628;2024-03-25T01:10:53;100929.26;;;35.23;23.98
47935;BME280;33704;43.592;-79.628;2024-03-25T01:11:25;100929.31;;;35.19;24.19
47935;BME280;33704;43.592;-79.628;2024-03-25T01:11:57;100929.11;;;35.19;24.89
47935;BME280;33704;43.592;-79.628;2024-03-25T01:12:29;100928.47;;;35.16;24.63
47935;BME280;33704;43.592;-79.628;2024-03-25T01:13:03;100931.04;;;35.18;24.90
47935;BME280;33704;43.592;-79.628;2024-03-25T01:13:35;100926.06;;;35.18;24.86
47935;BME280;33704;43.592;-79.628;2024-03-25T01:14:07;100927.97;;;35.18;24.60
47935;BME280;33704;43.592;-79.628;2024-03-25T01:14:38;100928.15;;;35.20;25.12
47935;BME280;33704;43.592;-79.628;2024-03-25T01:15:12;100929.21;;;35.21;25.23
47935;BME280;33704;43.592;-79.628;2024-03-25T01:15:44;100930.00;;;35.20;24.90
47935;BME280;33704;43.592;-79.628;2024-03-25T01:16:16;100926.17;;;35.17;24.72
47935;BME280;33704;43.592;-79.628;2024-03-25T01:16:47;100925.00;;;35.17;24.62
47935;BME280;33704;43.592;-79.628;2024-03-25T01:17:20;100926.68;;;35.20;24.30
47935;BME280;33704;43.592;-79.628;2024-03-25T01:17:52;100927.23;;;35.24;24.46
47935;BME280;33704;43.592;-79.628;2024-03-25T01:18:24;100928.86;;;35.22;24.48
47935;BME280;33704;43.592;-79.628;2024-03-25T01:18:56;100927.51;;;35.21;24.63
47935;BME280;33704;43.592;-79.628;2024-03-25T01:19:28;100927.72;;;35.18;24.85
47935;BME280;33704;43.592;-79.628;2024-03-25T01:19:59;100929.37;;;35.18;24.55
47935;BME280;33704;43.592;-79.628;2024-03-25T01:20:32;100927.41;;;35.18;24.61
47935;BME280;33704;43.592;-79.628;2024-03-25T01:21:05;100931.09;;;35.15;24.62
47935;BME280;33704;43.592;-79.628;2024-03-25T01:21:37;100931.37;;;35.14;24.75
47935;BME280;33704;43.592;-79.628;2024-03-25T01:22:08;100931.31;;;35.15;24.55
47935;BME280;33704;43.592;-79.628;2024-03-25T01:22:40;100929.87;;;35.14;24.82
47935;BME280;33704;43.592;-79.628;2024-03-25T01:23:13;100932.49;;;35.17;24.65
47935;BME280;33704;43.592;-79.628;2024-03-25T01:23:45;100933.32;;;35.17;24.81
47935;BME280;33704;43.592;-79.628;2024-03-25T01:24:17;100934.80;;;35.11;24.52
47935;BME280;33704;43.592;-79.628;2024-03-25T01:24:49;100935.68;;;35.08;24.40
47935;BME280;33704;43.592;-79.628;2024-03-25T01:25:21;100936.17;;;35.10;24.56
47935;BME280;33704;43.592;-79.628;2024-03-25T01:25:53;100936.67;;;35.13;24.74
47935;BME280;33704;43.592;-79.628;2024-03-25T01:26:25;100935.26;;;35.12;24.98
47935;BME280;33704;43.592;-79.628;2024-03-25T01:26:57;100935.55;;;35.10;25.22
47935;BME280;33704;43.592;-79.628;2024-03-25T01:27:29;100935.17;;;35.08;25.44
47935;BME280;33704;43.592;-79.628;2024-03-25T01:28:03;100934.46;;;35.13;25.32
47935;BME280;33704;43.592;-79.628;2024-03-25T01:28:35;100936.89;;;35.12;25.13
47935;BME280;33704;43.592;-79.628;2024-03-25T01:29:07;100937.24;;;35.10;24.86
47935;BME280;33704;43.592;-79.628;2024-03-25T01:29:38;100935.72;;;35.19;25.23
47935;BME280;33704;43.592;-79.628;2024-03-25T01:30:21;100937.58;;;35.12;25.17
47935;BME280;33704;43.592;-79.628;2024-03-25T01:30:53;100934.39;;;35.14;24.72
47935;BME280;33704;43.592;-79.628;2024-03-25T01:31:25;100942.31;;;35.18;24.93
47935;BME280;33704;43.592;-79.628;2024-03-25T01:31:56;100937.72;;;35.18;25.00
47935;BME280;33704;43.592;-79.628;2024-03-25T01:32:28;100939.13;;;35.16;25.15
47935;BME280;33704;43.592;-79.628;2024-03-25T01:33:00;100939.10;;;35.16;25.17
47935;BME280;33704;43.592;-79.628;2024-03-25T01:33:32;100940.05;;;35.16;24.84
47935;BME280;33704;43.592;-79.628;2024-03-25T01:34:05;100940.16;;;35.16;24.26
47935;BME280;33704;43.592;-79.628;2024-03-25T01:34:36;100939.62;;;35.22;24.15
47935;BME280;33704;43.592;-79.628;2024-03-25T01:35:09;100940.93;;;35.23;24.09
47935;BME280;33704;43.592;-79.628;2024-03-25T01:35:41;100944.16;;;35.25;23.92
47935;BME280;33704;43.592;-79.628;2024-03-25T01:36:14;100945.85;;;35.22;24.38
47935;BME280;33704;43.592;-79.628;2024-03-25T01:36:46;100949.66;;;35.20;24.53
47935;BME280;33704;43.592;-79.628;2024-03-25T01:37:17;100952.94;;;35.26;24.40
47935;BME280;33704;43.592;-79.628;2024-03-25T01:37:49;100953.46;;;35.31;24.25
47935;BME280;33704;43.592;-79.628;2024-03-25T01:38:23;100954.25;;;35.31;23.81
47935;BME280;33704;43.592;-79.628;2024-03-25T01:38:55;100953.18;;;35.31;23.88
47935;BME280;33704;43.592;-79.628;2024-03-25T01:39:27;100953.61;;;35.32;23.55
47935;BME280;33704;43.592;-79.628;2024-03-25T01:39:59;100952.10;;;35.31;23.78
47935;BME280;33704;43.592;-79.628;2024-03-25T01:40:32;100951.40;;;35.33;23.91
47935;BME280;33704;43.592;-79.628;2024-03-25T01:41:12;100949.10;;;35.29;23.63
47935;BME280;33704;43.592;-79.628;2024-03-25T01:41:45;100946.54;;;35.26;23.86
47935;BME280;33704;43.592;-79.628;2024-03-25T01:42:17;100947.65;;;35.28;24.27
47935;BME280;33704;43.592;-79.628;2024-03-25T01:42:55;100946.29;;;35.25;23.94
47935;BME280;33704;43.592;-79.628;2024-03-25T01:43:27;100944.80;;;35.28;24.24
47935;BME280;33704;43.592;-79.628;2024-03-25T01:44:00;100944.16;;;35.30;24.31
47935;BME280;33704;43.592;-79.628;2024-03-25T01:44:32;100945.31;;;35.30;23.51
47935;BME280;33704;43.592;-79.628;2024-03-25T01:45:08;100948.42;;;35.27;23.69
47935;BME280;33704;43.592;-79.628;2024-03-25T01:45:40;100949.17;;;35.29;23.37
47935;BME280;33704;43.592;-79.628;2024-03-25T01:46:12;100947.82;;;35.28;23.48
47935;BME280;33704;43.592;-79.628;2024-03-25T01:46:44;100947.71;;;35.23;24.04
47935;BME280;33704;43.592;-79.628;2024-03-25T01:47:16;100946.76;;;35.26;23.11
47935;BME280;33704;43.592;-79.628;2024-03-25T01:47:48;100946.86;;;35.24;23.98
47935;BME280;33704;43.592;-79.628;2024-03-25T01:48:20;100946.28;;;35.25;24.16
47935;BME280;33704;43.592;-79.628;2024-03-25T01:48:53;100948.03;;;35.25;24.33
47935;BME280;33704;43.592;-79.628;2024-03-25T01:49:25;100944.17;;;35.24;24.62
47935;BME280;33704;43.592;-79.628;2024-03-25T01:49:57;100944.47;;;35.22;24.56
47935;BME280;33704;43.592;-79.628;2024-03-25T01:50:29;100943.28;;;35.23;24.51
47935;BME280;33704;43.592;-79.628;2024-03-25T01:51:05;100943.11;;;35.21;24.50
47935;BME280;33704;43.592;-79.628;2024-03-25T01:51:37;100944.36;;;35.24;24.39
47935;BME280;33704;43.592;-79.628;2024-03-25T01:52:09;100943.52;;;35.23;24.45
47935;BME280;33704;43.592;-79.628;2024-03-25T01:52:43;100944.33;;;35.22;24.64
47935;BME280;33704;43.592;-79.628;2024-03-25T01:53:15;100947.47;;;35.20;24.93
47935;BME280;33704;43.592;-79.628;2024-03-25T01:53:47;100942.43;;;35.17;24.78
47935;BME280;33704;43.592;-79.628;2024-03-25T01:54:20;100947.40;;;35.16;24.37
47935;BME280;33704;43.592;-79.628;2024-03-25T01:54:53;100945.52;;;35.15;24.48
47935;BME280;33704;43.592;-79.628;2024-03-25T01:55:27;100946.36;;;35.16;24.51
47935;BME280;33704;43.592;-79.628;2024-03-25T01:56:00;100948.42;;;35.15;24.76
47935;BME280;33704;43.592;-79.628;2024-03-25T01:56:34;100949.63;;;35.11;25.14
47935;BME280;33704;43.592;-79.628;2024-03-25T01:57:07;100946.03;;;35.08;25.18
47935;BME280;33704;43.592;-79.628;2024-03-25T01:57:39;100945.84;;;35.08;25.06
47935;BME280;33704;43.592;-79.628;2024-03-25T01:58:12;100950.43;;;35.09;25.11
47935;BME280;33704;43.592;-79.628;2024-03-25T01:58:44;100946.46;;;35.07;25.17
47935;BME280;33704;43.592;-79.628;2024-03-25T01:59:16;100946.36;;;35.05;24.87
47935;BME280;33704;43.592;-79.628;2024-03-25T01:59:49;100949.06;;;35.06;25.10
47935;BME280;33704;43.592;-79.628;2024-03-25T02:00:27;100947.97;;;35.07;24.84
47935;BME280;33704;43.592;-79.628;2024-03-25T02:01:00;100945.04;;;35.03;24.97
47935;BME280;33704;43.592;-79.628;2024-03-25T02:01:33;100944.62;;;35.04;24.61
47935;BME280;33704;43.592;-79.628;2024-03-25T02:02:05;100944.97;;;35.02;24.75
47935;BME280;33704;43.592;-79.628;2024-03-25T02:02:38;100946.28;;;35.00;24.64
47935;BME280;33704;43.592;-79.628;2024-03-25T02:03:10;100945.75;;;35.00;24.93
47935;BME280;33704;43.592;-79.628;2024-03-25T02:03:43;100946.98;;;34.98;24.99
47935;BME280;33704;43.592;-79.628;2024-03-25T02:04:16;100948.83;;;34.97;24.79
47935;BME280;33704;43.592;-79.628;2024-03-25T02:04:48;100948.52;;;34.97;24.82
47935;BME280;33704;43.592;-79.628;2024-03-25T02:05:21;100950.24;;;34.99;24.95
47935;BME280;33704;43.592;-79.628;2024-03-25T02:05:57;100949.64;;;34.99;24.52
47935;BME280;33704;43.592;-79.628;2024-03-25T02:06:31;100949.01;;;34.98;24.95
47935;BME280;33704;43.592;-79.628;2024-03-25T02:07:06;100952.02;;;35.03;25.02
47935;BME280;33704;43.592;-79.628;2024-03-25T02:07:38;100950.27;;;35.01;24.82
47935;BME280;33704;43.592;-79.628;2024-03-25T02:08:11;100953.92;;;34.95;24.74
47935;BME280;33704;43.592;-79.628;2024-03-25T02:08:44;100950.38;;;34.96;24.48
47935;BME280;33704;43.592;-79.628;2024-03-25T02:09:16;100949.92;;;34.94;24.06
47935;BME280;33704;43.592;-79.628;2024-03-25T02:09:48;100946.24;;;34.95;24.33
47935;BME280;33704;43.592;-79.628;2024-03-25T02:10:22;100946.95;;;34.92;24.69
47935;BME280;33704;43.592;-79.628;2024-03-25T02:10:55;100947.70;;;34.92;24.62
47935;BME280;33704;43.592;-79.628;2024-03-25T02:11:28;100948.10;;;34.92;25.51
47935;BME280;33704;43.592;-79.628;2024-03-25T02:12:03;100947.56;;;34.91;25.10
47935;BME280;33704;43.592;-79.628;2024-03-25T02:12:35;100946.29;;;34.93;25.24
47935;BME280;33704;43.592;-79.628;2024-03-25T02:13:07;100943.11;;;34.92;24.95
47935;BME280;33704;43.592;-79.628;2024-03-25T02:13:39;100940.93;;;34.92;25.03
47935;BME280;33704;43.592;-79.628;2024-03-25T02:14:13;100937.41;;;34.93;24.62
47935;BME280;33704;43.592;-79.628;2024-03-25T02:14:45;100938.80;;;34.92;25.03
47935;BME280;33704;43.592;-79.628;2024-03-25T02:15:18;100939.12;;;34.90;24.91
47935;BME280;33704;43.592;-79.628;2024-03-25T02:15:50;100935.95;;;34.88;24.88
47935;BME280;33704;43.592;-79.628;2024-03-25T02:16:23;100932.74;;;34.87;24.92
47935;BME280;33704;43.592;-79.628;2024-03-25T02:16:55;100930.96;;;34.91;24.85
47935;BME280;33704;43.592;-79.628;2024-03-25T02:17:27;100935.74;;;34.91;24.97
47935;BME280;33704;43.592;-79.628;2024-03-25T02:17:59;100937.47;;;34.90;24.41
47935;BME280;33704;43.592;-79.628;2024-03-25T02:18:31;100936.71;;;34.90;24.48
47935;BME280;33704;43.592;-79.628;2024-03-25T02:19:05;100938.30;;;34.90;24.80
47935;BME280;33704;43.592;-79.628;2024-03-25T02:19:38;100937.57;;;34.89;24.71
47935;BME280;33704;43.592;-79.628;2024-03-25T02:20:12;100940.39;;;34.88;24.69
47935;BME280;33704;43.592;-79.628;2024-03-25T02:20:44;100940.11;;;34.88;24.53
47935;BME280;33704;43.592;-79.628;2024-03-25T02:21:16;100941.04;;;34.86;24.66
47935;BME280;33704;43.592;-79.628;2024-03-25T02:21:48;100938.60;;;34.88;24.71
47935;BME280;33704;43.592;-79.628;2024-03-25T02:22:20;100938.40;;;34.87;24.75
47935;BME280;33704;43.592;-79.628;2024-03-25T02:22:53;100937.99;;;34.88;24.32
47935;BME280;33704;43.592;-79.628;2024-03-25T02:23:27;100939.95;;;34.85;24.63
47935;BME280;33704;43.592;-79.628;2024-03-25T02:24:00;100938.64;;;34.84;24.58
47935;BME280;33704;43.592;-79.628;2024-03-25T02:24:35;100937.42;;;34.83;24.17
47935;BME280;33704;43.592;-79.628;2024-03-25T02:25:09;100936.45;;;34.85;24.18
47935;BME280;33704;43.592;-79.628;2024-03-25T02:25:43;100937.38;;;34.84;24.22
47935;BME280;33704;43.592;-79.628;2024-03-25T02:26:15;100937.33;;;34.85;24.33
47935;BME280;33704;43.592;-79.628;2024-03-25T02:26:46;100934.06;;;34.85;24.57
47935;BME280;33704;43.592;-79.628;2024-03-25T02:27:18;100934.95;;;34.86;24.60
47935;BME280;33704;43.592;-79.628;2024-03-25T02:27:52;100932.89;;;34.84;24.65
47935;BME280;33704;43.592;-79.628;2024-03-25T02:28:24;100932.46;;;34.83;24.65
47935;BME280;33704;43.592;-79.628;2024-03-25T02:28:55;100929.20;;;34.81;24.56
47935;BME280;33704;43.592;-79.628;2024-03-25T02:29:33;100927.68;;;34.83;24.38
47935;BME280;33704;43.592;-79.628;2024-03-25T02:30:54;100924.15;;;34.81;24.48
47935;BME280;33704;43.592;-79.628;2024-03-25T02:31:26;100921.21;;;34.80;24.19
47935;BME280;33704;43.592;-79.628;2024-03-25T02:31:58;100923.28;;;34.78;24.43
47935;BME280;33704;43.592;-79.628;2024-03-25T02:32:29;100919.34;;;34.77;24.49
47935;BME280;33704;43.592;-79.628;2024-03-25T02:33:05;100918.19;;;34.78;23.95
47935;BME280;33704;43.592;-79.628;2024-03-25T02:33:36;100917.71;;;34.76;23.73
47935;BME280;33704;43.592;-79.628;2024-03-25T02:34:08;100919.61;;;34.77;24.12
47935;BME280;33704;43.592;-79.628;2024-03-25T02:34:43;100918.48;;;34.76;23.99
47935;BME280;33704;43.592;-79.628;2024-03-25T02:35:16;100918.33;;;34.77;23.68
47935;BME280;33704;43.592;-79.628;2024-03-25T02:35:48;100919.52;;;34.79;23.95
47935;BME280;33704;43.592;-79.628;2024-03-25T02:36:20;100921.80;;;34.76;23.92
47935;BME280;33704;43.592;-79.628;2024-03-25T02:36:53;100920.89;;;34.74;24.21
47935;BME280;33704;43.592;-79.628;2024-03-25T02:37:26;100922.76;;;34.71;24.10
47935;BME280;33704;43.592;-79.628;2024-03-25T02:37:58;100922.07;;;34.71;23.99
47935;BME280;33704;43.592;-79.628;2024-03-25T02:38:30;100920.65;;;34.70;24.14
47935;BME280;33704;43.592;-79.628;2024-03-25T02:39:05;100921.58;;;34.71;24.28
47935;BME280;33704;43.592;-79.628;2024-03-25T02:39:37;100917.86;;;34.71;24.32
47935;BME280;33704;43.592;-79.628;2024-03-25T02:40:12;100919.54;;;34.71;23.97
47935;BME280;33704;43.592;-79.628;2024-03-25T02:40:44;100919.02;;;34.71;23.95
47935;BME280;33704;43.592;-79.628;2024-03-25T02:41:16;100923.13;;;34.69;24.23
47935;BME280;33704;43.592;-79.628;2024-03-25T02:41:47;100921.29;;;34.70;24.00
47935;BME280;33704;43.592;-79.628;2024-03-25T02:42:19;100922.37;;;34.72;23.75
47935;BME280;33704;43.592;-79.628;2024-03-25T02:42:52;100921.87;;;34.71;24.00
47935;BME280;33704;43.592;-79.628;2024-03-25T02:43:25;100916.29;;;34.69;24.14
47935;BME280;33704;43.592;-79.628;2024-03-25T02:43:57;100918.03;;;34.69;24.04
47935;BME280;33704;43.592;-79.628;2024-03-25T02:44:29;100915.78;;;34.68;24.19
47935;BME280;33704;43.592;-79.628;2024-03-25T02:45:04;100914.76;;;34.67;24.10
47935;BME280;33704;43.592;-79.628;2024-03-25T02:45:36;100911.86;;;34.68;24.02
47935;BME280;33704;43.592;-79.628;2024-03-25T02:46:08;100911.25;;;34.66;24.00
47935;BME280;33704;43.592;-79.628;2024-03-25T02:46:40;100911.60;;;34.68;24.03
47935;BME280;33704;43.592;-79.628;2024-03-25T02:47:14;100912.82;;;34.65;23.64